Charlevoix, MI

11:58 PM EST on December 21, 2014 (GMT -0500)
Charlevoix Municipal | Change Station
CLOSE
Current Station
Airport
Location: Charlevoix,
Elevation: 669 ft
Nearby Weather Stations

Elev 669 ft 45.30 °N, 85.27 °W | Updated 3 minutes ago

Overcast
Overcast
32 °F
Feels Like 24 °F
N
9
Wind Variable Wind from SSE

Today
High -- | Low -- °F
--% Chance of Precip.
Yesterday
High -- | Low -- °F
Precip. -- in
8:17 AM 5:01 PM
New Moon, 0% visible
Pressure 30.10 in
Visibility 7.0 miles
Clouds Mostly Cloudy 3900 ft
Mostly Cloudy 5000 ft
Overcast 8500 ft
Windchill 24 °F
Dew Point 28 °F
Humidity 85%
Rainfall 0.00 in
Snow Depth Not available.
UV 0 out of 12
Pollen .10 out of 12
Air Quality Not available.
Flu Activity Not available.
METAR KCVX 220455Z AUTO 16008KT 7SM BKN039 BKN050 OVC085 00/M02 A3010 RMK AO2 T00001022

More Conditions Fewer Conditions

Pressure 30.10 in
Visibility 7.0 miles
Clouds Mostly Cloudy 3900 ft
Mostly Cloudy 5000 ft
Overcast 8500 ft
Windchill 24 °F
Dew Point 28 °F
Humidity 85%
Rainfall 0.00 in
Snow Depth Not available.
UV 0 out of 12
Pollen .10 out of 12
Air Quality Not available.
Flu Activity Not available.
METAR KCVX 220455Z AUTO 16008KT 7SM BKN039 BKN050 OVC085 00/M02 A3010 RMK AO2 T00001022

More Conditions Fewer Conditions

Nowcast | as of 11:00 PM EST on December 21, 2014

At 12 am...cloudy. Temperature 33. South winds 12 mph. At 2 am...cloudy. Temperature 33. South winds 12 mph. At 4 am...cloudy. Temperature 32. South winds 12 mph. At 6 am...cloudy. Temperature 31. South winds 11 mph.

×

10-Day Weather Forecast

Almanac

Astronomy

Dec. 21, 2014 Rise Set
Actual Time
Civil Twilight
Nautical Twilight
Astronomical Twilight
Moon
Length of Visible Light
Length of Day
Tomorrow will be .
, % of the Moon is Illuminated

Today's Extremes

State Highs State Lows

Community

WunderPhotos

Upload Photos

1,779,540 photos uploaded!

WunderBlogs® & News

Nearby

Air Quality

  Air Quality AQ Index Pollutant
Not available.

Snow Depth

Station Depth Elevation

Earthquake Activity

City Distance Mag. Time & Date
Minimum magnitude displayed is 2.5.

Coastal Water Temperatures

Place Temperature

Nearby Weather Stations